sensor_id;sensor_type;location;lat;lon;timestamp;P1;durP1;ratioP1;P2;durP2;ratioP2
77012;SDS011;67260;53.130;17.982;2023-08-08T00:00:33;8.40;;;1.90;;
77012;SDS011;67260;53.130;17.982;2023-08-08T00:03:28;6.10;;;1.80;;
77012;SDS011;67260;53.130;17.982;2023-08-08T00:06:09;5.50;;;1.90;;
77012;SDS011;67260;53.130;17.982;2023-08-08T00:08:36;7.00;;;2.40;;
77012;SDS011;67260;53.130;17.982;2023-08-08T00:11:02;5.90;;;2.10;;
77012;SDS011;67260;53.130;17.982;2023-08-08T00:13:29;8.00;;;2.00;;
77012;SDS011;67260;53.130;17.982;2023-08-08T00:15:58;6.80;;;2.10;;
77012;SDS011;67260;53.130;17.982;2023-08-08T00:18:25;8.30;;;1.90;;
77012;SDS011;67260;53.130;17.982;2023-08-08T00:20:52;7.10;;;2.10;;
77012;SDS011;67260;53.130;17.982;2023-08-08T00:23:21;9.60;;;2.30;;
77012;SDS011;67260;53.130;17.982;2023-08-08T00:25:48;8.20;;;1.90;;
77012;SDS011;67260;53.130;17.982;2023-08-08T00:28:17;8.00;;;2.20;;
77012;SDS011;67260;53.130;17.982;2023-08-08T00:30:44;9.80;;;2.20;;
77012;SDS011;67260;53.130;17.982;2023-08-08T00:33:11;11.00;;;2.00;;
77012;SDS011;67260;53.130;17.982;2023-08-08T00:35:38;11.30;;;2.20;;
77012;SDS011;67260;53.130;17.982;2023-08-08T00:38:04;8.70;;;2.40;;
77012;SDS011;67260;53.130;17.982;2023-08-08T00:40:32;9.30;;;2.30;;
77012;SDS011;67260;53.130;17.982;2023-08-08T00:42:59;7.80;;;1.90;;
77012;SDS011;67260;53.130;17.982;2023-08-08T00:45:33;8.50;;;2.40;;
77012;SDS011;67260;53.130;17.982;2023-08-08T00:48:01;11.20;;;2.20;;
77012;SDS011;67260;53.130;17.982;2023-08-08T00:50:27;12.60;;;2.40;;
77012;SDS011;67260;53.130;17.982;2023-08-08T00:52:54;7.00;;;2.50;;
77012;SDS011;67260;53.130;17.982;2023-08-08T00:55:22;9.80;;;2.00;;
77012;SDS011;67260;53.130;17.982;2023-08-08T00:57:52;9.20;;;2.30;;
77012;SDS011;67260;53.130;17.982;2023-08-08T01:00:22;9.10;;;2.10;;
77012;SDS011;67260;53.130;17.982;2023-08-08T01:02:50;8.00;;;1.90;;
77012;SDS011;67260;53.130;17.982;2023-08-08T01:05:16;6.90;;;1.90;;
77012;SDS011;67260;53.130;17.982;2023-08-08T01:08:03;5.80;;;2.10;;
77012;SDS011;67260;53.130;17.982;2023-08-08T01:10:34;8.50;;;2.20;;
77012;SDS011;67260;53.130;17.982;2023-08-08T01:13:05;11.60;;;2.10;;
77012;SDS011;67260;53.130;17.982;2023-08-08T01:15:36;6.80;;;2.00;;
77012;SDS011;67260;53.130;17.982;2023-08-08T01:18:04;5.60;;;2.00;;
77012;SDS011;67260;53.130;17.982;2023-08-08T01:20:32;6.40;;;2.00;;
77012;SDS011;67260;53.130;17.982;2023-08-08T01:25:42;9.30;;;2.10;;
77012;SDS011;67260;53.130;17.982;2023-08-08T01:28:20;9.10;;;1.70;;
77012;SDS011;67260;53.130;17.982;2023-08-08T01:30:51;6.20;;;2.30;;
77012;SDS011;67260;53.130;17.982;2023-08-08T01:33:18;7.30;;;1.90;;
77012;SDS011;67260;53.130;17.982;2023-08-08T01:35:46;9.10;;;1.80;;
77012;SDS011;67260;53.130;17.982;2023-08-08T01:40:49;6.20;;;1.80;;
77012;SDS011;67260;53.130;17.982;2023-08-08T01:43:16;5.70;;;1.70;;
77012;SDS011;67260;53.130;17.982;2023-08-08T01:45:44;6.60;;;1.70;;
77012;SDS011;67260;53.130;17.982;2023-08-08T01:48:11;6.10;;;1.70;;
77012;SDS011;67260;53.130;17.982;2023-08-08T01:50:38;5.50;;;1.60;;
77012;SDS011;67260;53.130;17.982;2023-08-08T01:53:04;7.30;;;2.20;;
77012;SDS011;67260;53.130;17.982;2023-08-08T01:55:31;7.00;;;1.60;;
77012;SDS011;67260;53.130;17.982;2023-08-08T01:57:58;9.00;;;2.80;;
77012;SDS011;67260;53.130;17.982;2023-08-08T02:00:25;8.10;;;1.60;;
77012;SDS011;67260;53.130;17.982;2023-08-08T02:02:52;7.30;;;1.90;;
77012;SDS011;67260;53.130;17.982;2023-08-08T02:05:20;5.90;;;1.60;;
77012;SDS011;67260;53.130;17.982;2023-08-08T02:07:46;6.30;;;1.70;;
77012;SDS011;67260;53.130;17.982;2023-08-08T02:10:13;6.50;;;1.90;;
77012;SDS011;67260;53.130;17.982;2023-08-08T02:12:42;9.30;;;2.20;;
77012;SDS011;67260;53.130;17.982;2023-08-08T02:15:10;6.60;;;2.10;;
77012;SDS011;67260;53.130;17.982;2023-08-08T02:17:38;9.50;;;2.10;;
77012;SDS011;67260;53.130;17.982;2023-08-08T02:20:08;7.80;;;1.70;;
77012;SDS011;67260;53.130;17.982;2023-08-08T02:22:35;6.80;;;1.70;;
77012;SDS011;67260;53.130;17.982;2023-08-08T02:25:03;6.20;;;1.80;;
77012;SDS011;67260;53.130;17.982;2023-08-08T02:27:30;10.40;;;2.00;;
77012;SDS011;67260;53.130;17.982;2023-08-08T02:30:00;6.80;;;1.70;;
77012;SDS011;67260;53.130;17.982;2023-08-08T02:32:27;7.40;;;1.80;;
77012;SDS011;67260;53.130;17.982;2023-08-08T02:34:54;5.40;;;1.70;;
77012;SDS011;67260;53.130;17.982;2023-08-08T02:37:21;6.90;;;1.90;;
77012;SDS011;67260;53.130;17.982;2023-08-08T02:39:47;5.20;;;1.90;;
77012;SDS011;67260;53.130;17.982;2023-08-08T02:42:15;7.70;;;1.80;;
77012;SDS011;67260;53.130;17.982;2023-08-08T02:44:46;5.40;;;1.80;;
77012;SDS011;67260;53.130;17.982;2023-08-08T02:47:13;5.80;;;1.70;;
77012;SDS011;67260;53.130;17.982;2023-08-08T02:49:40;5.70;;;1.80;;
77012;SDS011;67260;53.130;17.982;2023-08-08T02:52:06;8.00;;;2.10;;
77012;SDS011;67260;53.130;17.982;2023-08-08T02:54:34;9.20;;;1.80;;
77012;SDS011;67260;53.130;17.982;2023-08-08T02:57:01;8.30;;;1.90;;
77012;SDS011;67260;53.130;17.982;2023-08-08T02:59:28;5.90;;;1.50;;
77012;SDS011;67260;53.130;17.982;2023-08-08T03:01:55;5.80;;;1.80;;
77012;SDS011;67260;53.130;17.982;2023-08-08T03:04:22;8.80;;;2.00;;
77012;SDS011;67260;53.130;17.982;2023-08-08T03:06:49;6.50;;;2.00;;
77012;SDS011;67260;53.130;17.982;2023-08-08T03:09:16;7.30;;;1.60;;
77012;SDS011;67260;53.130;17.982;2023-08-08T03:11:43;8.40;;;1.80;;
77012;SDS011;67260;53.130;17.982;2023-08-08T03:14:12;8.90;;;2.00;;
77012;SDS011;67260;53.130;17.982;2023-08-08T03:16:39;7.60;;;1.80;;
77012;SDS011;67260;53.130;17.982;2023-08-08T03:19:07;8.40;;;2.00;;
77012;SDS011;67260;53.130;17.982;2023-08-08T03:21:34;7.40;;;2.00;;
77012;SDS011;67260;53.130;17.982;2023-08-08T03:24:02;6.10;;;2.10;;
77012;SDS011;67260;53.130;17.982;2023-08-08T03:26:29;6.70;;;1.80;;
77012;SDS011;67260;53.130;17.982;2023-08-08T03:28:56;9.20;;;2.00;;
77012;SDS011;67260;53.130;17.982;2023-08-08T03:31:29;7.10;;;1.90;;
77012;SDS011;67260;53.130;17.982;2023-08-08T03:33:56;5.90;;;2.00;;
77012;SDS011;67260;53.130;17.982;2023-08-08T03:36:23;9.20;;;2.00;;
77012;SDS011;67260;53.130;17.982;2023-08-08T03:38:50;7.10;;;1.90;;
77012;SDS011;67260;53.130;17.982;2023-08-08T03:41:17;7.50;;;2.00;;
77012;SDS011;67260;53.130;17.982;2023-08-08T03:43:44;7.40;;;1.90;;
77012;SDS011;67260;53.130;17.982;2023-08-08T03:46:11;6.10;;;2.00;;
77012;SDS011;67260;53.130;17.982;2023-08-08T03:48:38;5.50;;;1.60;;
77012;SDS011;67260;53.130;17.982;2023-08-08T03:51:05;4.80;;;1.70;;
77012;SDS011;67260;53.130;17.982;2023-08-08T03:53:33;7.70;;;1.90;;
77012;SDS011;67260;53.130;17.982;2023-08-08T03:56:00;9.00;;;2.20;;
77012;SDS011;67260;53.130;17.982;2023-08-08T03:58:26;6.20;;;2.00;;
77012;SDS011;67260;53.130;17.982;2023-08-08T04:00:53;6.50;;;1.80;;
77012;SDS011;67260;53.130;17.982;2023-08-08T04:03:20;6.20;;;1.60;;
77012;SDS011;67260;53.130;17.982;2023-08-08T04:05:46;5.00;;;1.60;;
77012;SDS011;67260;53.130;17.982;2023-08-08T04:08:14;6.50;;;1.70;;
77012;SDS011;67260;53.130;17.982;2023-08-08T04:10:41;5.90;;;1.80;;
77012;SDS011;67260;53.130;17.982;2023-08-08T04:13:09;9.20;;;2.30;;
77012;SDS011;67260;53.130;17.982;2023-08-08T04:15:37;6.20;;;1.80;;
77012;SDS011;67260;53.130;17.982;2023-08-08T04:18:04;7.20;;;1.80;;
77012;SDS011;67260;53.130;17.982;2023-08-08T04:20:33;8.60;;;1.90;;
77012;SDS011;67260;53.130;17.982;2023-08-08T04:23:00;6.20;;;1.80;;
77012;SDS011;67260;53.130;17.982;2023-08-08T04:25:27;10.00;;;1.80;;
77012;SDS011;67260;53.130;17.982;2023-08-08T04:27:54;6.30;;;1.60;;
77012;SDS011;67260;53.130;17.982;2023-08-08T04:30:21;7.00;;;1.60;;
77012;SDS011;67260;53.130;17.982;2023-08-08T04:32:49;6.30;;;1.60;;
77012;SDS011;67260;53.130;17.982;2023-08-08T04:35:16;5.60;;;1.80;;
77012;SDS011;67260;53.130;17.982;2023-08-08T04:37:42;6.30;;;1.70;;
77012;SDS011;67260;53.130;17.982;2023-08-08T04:40:09;7.10;;;1.60;;
77012;SDS011;67260;53.130;17.982;2023-08-08T04:42:36;5.20;;;1.60;;
77012;SDS011;67260;53.130;17.982;2023-08-08T04:45:03;7.90;;;1.50;;
77012;SDS011;67260;53.130;17.982;2023-08-08T04:47:31;6.70;;;1.90;;
77012;SDS011;67260;53.130;17.982;2023-08-08T04:49:57;4.80;;;1.50;;
77012;SDS011;67260;53.130;17.982;2023-08-08T04:52:24;6.40;;;1.90;;
77012;SDS011;67260;53.130;17.982;2023-08-08T04:54:51;5.20;;;1.80;;
77012;SDS011;67260;53.130;17.982;2023-08-08T04:57:17;6.50;;;1.50;;
77012;SDS011;67260;53.130;17.982;2023-08-08T04:59:44;6.00;;;1.70;;
77012;SDS011;67260;53.130;17.982;2023-08-08T05:02:11;6.20;;;1.80;;
77012;SDS011;67260;53.130;17.982;2023-08-08T05:04:37;6.70;;;2.10;;
77012;SDS011;67260;53.130;17.982;2023-08-08T05:07:04;4.50;;;1.60;;
77012;SDS011;67260;53.130;17.982;2023-08-08T05:09:32;8.60;;;1.80;;
77012;SDS011;67260;53.130;17.982;2023-08-08T05:11:58;7.00;;;1.90;;
77012;SDS011;67260;53.130;17.982;2023-08-08T05:14:25;5.90;;;1.70;;
77012;SDS011;67260;53.130;17.982;2023-08-08T05:16:52;5.30;;;1.60;;
77012;SDS011;67260;53.130;17.982;2023-08-08T05:19:19;7.50;;;1.60;;
77012;SDS011;67260;53.130;17.982;2023-08-08T05:21:46;5.70;;;1.60;;
77012;SDS011;67260;53.130;17.982;2023-08-08T05:24:13;6.60;;;1.60;;
77012;SDS011;67260;53.130;17.982;2023-08-08T05:26:39;5.90;;;1.80;;
77012;SDS011;67260;53.130;17.982;2023-08-08T05:29:06;8.20;;;2.00;;
77012;SDS011;67260;53.130;17.982;2023-08-08T05:31:32;4.30;;;1.60;;
77012;SDS011;67260;53.130;17.982;2023-08-08T05:33:59;6.10;;;1.70;;
77012;SDS011;67260;53.130;17.982;2023-08-08T05:36:26;6.60;;;1.70;;
77012;SDS011;67260;53.130;17.982;2023-08-08T05:38:53;6.80;;;2.00;;
77012;SDS011;67260;53.130;17.982;2023-08-08T05:41:19;4.20;;;1.40;;
77012;SDS011;67260;53.130;17.982;2023-08-08T05:43:46;4.00;;;1.60;;
77012;SDS011;67260;53.130;17.982;2023-08-08T05:46:13;5.90;;;1.90;;
77012;SDS011;67260;53.130;17.982;2023-08-08T05:48:40;6.80;;;1.80;;
77012;SDS011;67260;53.130;17.982;2023-08-08T05:51:06;7.00;;;1.80;;
77012;SDS011;67260;53.130;17.982;2023-08-08T05:53:33;7.60;;;1.80;;
77012;SDS011;67260;53.130;17.982;2023-08-08T05:56:00;6.70;;;1.50;;
77012;SDS011;67260;53.130;17.982;2023-08-08T05:58:26;4.80;;;1.60;;
77012;SDS011;67260;53.130;17.982;2023-08-08T06:00:53;3.90;;;1.40;;
77012;SDS011;67260;53.130;17.982;2023-08-08T06:03:19;7.00;;;2.10;;
77012;SDS011;67260;53.130;17.982;2023-08-08T06:05:46;8.80;;;1.80;;
77012;SDS011;67260;53.130;17.982;2023-08-08T06:08:13;6.80;;;1.70;;
77012;SDS011;67260;53.130;17.982;2023-08-08T06:10:42;7.30;;;2.00;;
77012;SDS011;67260;53.130;17.982;2023-08-08T06:13:09;7.10;;;1.70;;
77012;SDS011;67260;53.130;17.982;2023-08-08T06:15:35;6.80;;;1.60;;
77012;SDS011;67260;53.130;17.982;2023-08-08T06:18:02;5.00;;;1.70;;
77012;SDS011;67260;53.130;17.982;2023-08-08T06:20:29;5.00;;;1.60;;
77012;SDS011;67260;53.130;17.982;2023-08-08T06:22:55;6.70;;;1.70;;
77012;SDS011;67260;53.130;17.982;2023-08-08T06:25:22;2.70;;;1.20;;
77012;SDS011;67260;53.130;17.982;2023-08-08T06:27:49;3.40;;;1.50;;
77012;SDS011;67260;53.130;17.982;2023-08-08T06:30:15;4.40;;;1.40;;
77012;SDS011;67260;53.130;17.982;2023-08-08T06:32:43;5.40;;;1.80;;
77012;SDS011;67260;53.130;17.982;2023-08-08T06:35:09;4.70;;;1.60;;
77012;SDS011;67260;53.130;17.982;2023-08-08T06:37:36;5.60;;;1.50;;
77012;SDS011;67260;53.130;17.982;2023-08-08T06:40:03;6.60;;;1.70;;
77012;SDS011;67260;53.130;17.982;2023-08-08T06:42:30;3.70;;;1.40;;
77012;SDS011;67260;53.130;17.982;2023-08-08T06:45:00;3.80;;;1.50;;
77012;SDS011;67260;53.130;17.982;2023-08-08T06:47:26;5.10;;;1.40;;
77012;SDS011;67260;53.130;17.982;2023-08-08T06:49:53;3.70;;;1.50;;
77012;SDS011;67260;53.130;17.982;2023-08-08T06:52:21;5.10;;;1.50;;
77012;SDS011;67260;53.130;17.982;2023-08-08T06:54:56;3.50;;;1.40;;
77012;SDS011;67260;53.130;17.982;2023-08-08T06:57:34;4.00;;;1.40;;
77012;SDS011;67260;53.130;17.982;2023-08-08T07:00:15;3.30;;;1.30;;
77012;SDS011;67260;53.130;17.982;2023-08-08T07:02:45;3.30;;;1.40;;
77012;SDS011;67260;53.130;17.982;2023-08-08T07:05:13;4.40;;;1.40;;
77012;SDS011;67260;53.130;17.982;2023-08-08T07:07:47;4.60;;;1.40;;
77012;SDS011;67260;53.130;17.982;2023-08-08T07:10:20;4.80;;;1.30;;
77012;SDS011;67260;53.130;17.982;2023-08-08T07:12:54;5.10;;;1.30;;
77012;SDS011;67260;53.130;17.982;2023-08-08T07:15:20;4.20;;;1.20;;
77012;SDS011;67260;53.130;17.982;2023-08-08T07:18:05;6.10;;;1.30;;
77012;SDS011;67260;53.130;17.982;2023-08-08T07:20:33;3.80;;;1.40;;
77012;SDS011;67260;53.130;17.982;2023-08-08T07:23:05;3.00;;;1.20;;
77012;SDS011;67260;53.130;17.982;2023-08-08T07:25:40;3.10;;;1.20;;
77012;SDS011;67260;53.130;17.982;2023-08-08T07:28:07;5.60;;;1.40;;
77012;SDS011;67260;53.130;17.982;2023-08-08T07:30:35;4.10;;;1.40;;
77012;SDS011;67260;53.130;17.982;2023-08-08T07:33:07;5.10;;;1.50;;
77012;SDS011;67260;53.130;17.982;2023-08-08T07:35:37;2.30;;;1.10;;
77012;SDS011;67260;53.130;17.982;2023-08-08T07:38:04;5.00;;;1.40;;
77012;SDS011;67260;53.130;17.982;2023-08-08T07:40:38;3.90;;;1.30;;
77012;SDS011;67260;53.130;17.982;2023-08-08T07:43:24;5.60;;;1.30;;
77012;SDS011;67260;53.130;17.982;2023-08-08T07:45:51;3.80;;;1.50;;
77012;SDS011;67260;53.130;17.982;2023-08-08T07:48:32;5.10;;;1.30;;
77012;SDS011;67260;53.130;17.982;2023-08-08T07:51:03;4.50;;;1.60;;
77012;SDS011;67260;53.130;17.982;2023-08-08T07:53:34;4.80;;;2.10;;
77012;SDS011;67260;53.130;17.982;2023-08-08T07:56:01;4.30;;;2.10;;
77012;SDS011;67260;53.130;17.982;2023-08-08T07:58:28;5.40;;;1.80;;
77012;SDS011;67260;53.130;17.982;2023-08-08T08:00:55;4.70;;;1.40;;
77012;SDS011;67260;53.130;17.982;2023-08-08T08:03:22;4.10;;;1.40;;
77012;SDS011;67260;53.130;17.982;2023-08-08T08:05:54;5.30;;;1.80;;
77012;SDS011;67260;53.130;17.982;2023-08-08T08:08:35;6.90;;;2.10;;
77012;SDS011;67260;53.130;17.982;2023-08-08T08:11:02;4.20;;;1.70;;
77012;SDS011;67260;53.130;17.982;2023-08-08T08:13:29;4.80;;;1.60;;
77012;SDS011;67260;53.130;17.982;2023-08-08T08:15:59;4.10;;;1.40;;
77012;SDS011;67260;53.130;17.982;2023-08-08T08:18:29;9.10;;;1.70;;
77012;SDS011;67260;53.130;17.982;2023-08-08T08:20:55;5.20;;;1.60;;
77012;SDS011;67260;53.130;17.982;2023-08-08T08:23:22;5.30;;;1.60;;
77012;SDS011;67260;53.130;17.982;2023-08-08T08:25:49;5.60;;;1.50;;
77012;SDS011;67260;53.130;17.982;2023-08-08T08:28:16;5.00;;;1.50;;
77012;SDS011;67260;53.130;17.982;2023-08-08T08:30:46;6.50;;;1.70;;
77012;SDS011;67260;53.130;17.982;2023-08-08T08:33:18;4.40;;;1.60;;
77012;SDS011;67260;53.130;17.982;2023-08-08T08:35:45;4.70;;;1.60;;
77012;SDS011;67260;53.130;17.982;2023-08-08T08:38:15;6.00;;;1.50;;
77012;SDS011;67260;53.130;17.982;2023-08-08T08:40:45;4.40;;;1.30;;
77012;SDS011;67260;53.130;17.982;2023-08-08T08:43:14;5.20;;;1.70;;
77012;SDS011;67260;53.130;17.982;2023-08-08T08:45:50;4.30;;;1.40;;
77012;SDS011;67260;53.130;17.982;2023-08-08T08:48:20;5.30;;;1.60;;
77012;SDS011;67260;53.130;17.982;2023-08-08T08:50:48;6.80;;;1.50;;
77012;SDS011;67260;53.130;17.982;2023-08-08T08:53:21;3.40;;;1.30;;
77012;SDS011;67260;53.130;17.982;2023-08-08T08:55:49;4.20;;;1.40;;
77012;SDS011;67260;53.130;17.982;2023-08-08T08:58:17;3.70;;;1.30;;
77012;SDS011;67260;53.130;17.982;2023-08-08T09:00:44;4.30;;;1.50;;
77012;SDS011;67260;53.130;17.982;2023-08-08T09:03:21;3.90;;;1.60;;
77012;SDS011;67260;53.130;17.982;2023-08-08T09:05:51;6.00;;;1.70;;
77012;SDS011;67260;53.130;17.982;2023-08-08T09:08:21;4.80;;;1.60;;
77012;SDS011;67260;53.130;17.982;2023-08-08T09:10:58;4.00;;;1.50;;
77012;SDS011;67260;53.130;17.982;2023-08-08T09:13:25;3.90;;;1.40;;
77012;SDS011;67260;53.130;17.982;2023-08-08T09:15:53;6.00;;;1.50;;
77012;SDS011;67260;53.130;17.982;2023-08-08T09:18:42;3.80;;;1.20;;
77012;SDS011;67260;53.130;17.982;2023-08-08T09:21:12;6.90;;;1.70;;
77012;SDS011;67260;53.130;17.982;2023-08-08T09:23:55;4.30;;;1.80;;
77012;SDS011;67260;53.130;17.982;2023-08-08T09:26:25;3.80;;;1.50;;
77012;SDS011;67260;53.130;17.982;2023-08-08T09:28:52;5.90;;;1.60;;
77012;SDS011;67260;53.130;17.982;2023-08-08T09:31:21;4.20;;;1.60;;
77012;SDS011;67260;53.130;17.982;2023-08-08T09:34:01;5.80;;;1.70;;
77012;SDS011;67260;53.130;17.982;2023-08-08T09:36:31;4.10;;;1.50;;
77012;SDS011;67260;53.130;17.982;2023-08-08T09:38:59;5.80;;;1.50;;
77012;SDS011;67260;53.130;17.982;2023-08-08T09:41:26;5.00;;;1.50;;
77012;SDS011;67260;53.130;17.982;2023-08-08T09:43:54;4.80;;;1.70;;
77012;SDS011;67260;53.130;17.982;2023-08-08T09:46:29;3.90;;;1.40;;
77012;SDS011;67260;53.130;17.982;2023-08-08T09:48:59;4.30;;;1.40;;
77012;SDS011;67260;53.130;17.982;2023-08-08T09:51:27;3.80;;;1.60;;
77012;SDS011;67260;53.130;17.982;2023-08-08T09:53:55;4.70;;;1.70;;
77012;SDS011;67260;53.130;17.982;2023-08-08T09:56:25;7.40;;;1.70;;
77012;SDS011;67260;53.130;17.982;2023-08-08T09:58:57;6.10;;;2.00;;
77012;SDS011;67260;53.130;17.982;2023-08-08T10:01:32;4.90;;;1.60;;
77012;SDS011;67260;53.130;17.982;2023-08-08T10:04:13;4.60;;;1.70;;
77012;SDS011;67260;53.130;17.982;2023-08-08T10:06:41;3.50;;;1.50;;
77012;SDS011;67260;53.130;17.982;2023-08-08T10:09:11;4.50;;;1.60;;
77012;SDS011;67260;53.130;17.982;2023-08-08T10:11:47;5.60;;;1.40;;
77012;SDS011;67260;53.130;17.982;2023-08-08T10:16:46;4.20;;;1.40;;
77012;SDS011;67260;53.130;17.982;2023-08-08T10:19:20;3.70;;;1.40;;
77012;SDS011;67260;53.130;17.982;2023-08-08T10:21:54;5.00;;;1.60;;
77012;SDS011;67260;53.130;17.982;2023-08-08T10:24:23;4.20;;;1.60;;
77012;SDS011;67260;53.130;17.982;2023-08-08T10:26:57;5.20;;;1.60;;
77012;SDS011;67260;53.130;17.982;2023-08-08T10:29:29;4.70;;;1.40;;
77012;SDS011;67260;53.130;17.982;2023-08-08T10:31:59;4.00;;;1.50;;
77012;SDS011;67260;53.130;17.982;2023-08-08T10:34:40;4.20;;;1.40;;
77012;SDS011;67260;53.130;17.982;2023-08-08T10:39:36;4.90;;;1.60;;
77012;SDS011;67260;53.130;17.982;2023-08-08T10:42:03;4.50;;;1.50;;
77012;SDS011;67260;53.130;17.982;2023-08-08T10:44:31;3.80;;;1.50;;
77012;SDS011;67260;53.130;17.982;2023-08-08T10:46:59;3.90;;;1.50;;
77012;SDS011;67260;53.130;17.982;2023-08-08T10:49:26;5.60;;;1.30;;
77012;SDS011;67260;53.130;17.982;2023-08-08T10:51:54;4.60;;;1.40;;
77012;SDS011;67260;53.130;17.982;2023-08-08T10:54:29;4.40;;;1.30;;
77012;SDS011;67260;53.130;17.982;2023-08-08T10:56:58;5.20;;;1.40;;
77012;SDS011;67260;53.130;17.982;2023-08-08T10:59:37;3.80;;;1.30;;
77012;SDS011;67260;53.130;17.982;2023-08-08T11:02:04;8.40;;;1.70;;
77012;SDS011;67260;53.130;17.982;2023-08-08T11:04:32;4.00;;;1.60;;
77012;SDS011;67260;53.130;17.982;2023-08-08T11:06:59;5.00;;;1.70;;
77012;SDS011;67260;53.130;17.982;2023-08-08T11:09:26;4.30;;;1.40;;
77012;SDS011;67260;53.130;17.982;2023-08-08T11:11:53;4.90;;;1.40;;
77012;SDS011;67260;53.130;17.982;2023-08-08T11:14:20;6.30;;;1.40;;
77012;SDS011;67260;53.130;17.982;2023-08-08T11:16:49;3.90;;;1.70;;
77012;SDS011;67260;53.130;17.982;2023-08-08T11:19:17;3.80;;;1.50;;
77012;SDS011;67260;53.130;17.982;2023-08-08T11:21:49;5.10;;;1.80;;
77012;SDS011;67260;53.130;17.982;2023-08-08T11:24:19;5.40;;;1.40;;
77012;SDS011;67260;53.130;17.982;2023-08-08T11:26:46;4.50;;;1.40;;
77012;SDS011;67260;53.130;17.982;2023-08-08T11:29:13;5.70;;;1.70;;
77012;SDS011;67260;53.130;17.982;2023-08-08T11:31:40;5.00;;;1.60;;
77012;SDS011;67260;53.130;17.982;2023-08-08T11:34:07;5.30;;;1.40;;
77012;SDS011;67260;53.130;17.982;2023-08-08T11:36:36;5.40;;;1.60;;
77012;SDS011;67260;53.130;17.982;2023-08-08T11:39:06;4.80;;;1.40;;
77012;SDS011;67260;53.130;17.982;2023-08-08T11:41:35;5.40;;;1.20;;
77012;SDS011;67260;53.130;17.982;2023-08-08T11:44:03;4.90;;;1.20;;
77012;SDS011;67260;53.130;17.982;2023-08-08T11:46:31;3.50;;;1.40;;
77012;SDS011;67260;53.130;17.982;2023-08-08T11:49:04;4.00;;;1.20;;
77012;SDS011;67260;53.130;17.982;2023-08-08T11:51:33;3.70;;;1.10;;
77012;SDS011;67260;53.130;17.982;2023-08-08T11:54:03;2.60;;;1.10;;
77012;SDS011;67260;53.130;17.982;2023-08-08T11:56:32;4.60;;;1.30;;
77012;SDS011;67260;53.130;17.982;2023-08-08T11:59:01;3.90;;;1.20;;
77012;SDS011;67260;53.130;17.982;2023-08-08T12:01:30;3.70;;;1.40;;
77012;SDS011;67260;53.130;17.982;2023-08-08T12:03:57;2.70;;;1.20;;
77012;SDS011;67260;53.130;17.982;2023-08-08T12:06:27;4.20;;;1.40;;
77012;SDS011;67260;53.130;17.982;2023-08-08T12:08:56;3.50;;;1.30;;
77012;SDS011;67260;53.130;17.982;2023-08-08T12:11:23;3.70;;;1.30;;
77012;SDS011;67260;53.130;17.982;2023-08-08T12:13:50;4.10;;;1.30;;
77012;SDS011;67260;53.130;17.982;2023-08-08T12:16:18;2.90;;;1.10;;
77012;SDS011;67260;53.130;17.982;2023-08-08T12:18:46;4.20;;;1.40;;
77012;SDS011;67260;53.130;17.982;2023-08-08T12:21:15;4.30;;;1.30;;
77012;SDS011;67260;53.130;17.982;2023-08-08T12:23:43;2.80;;;1.20;;
77012;SDS011;67260;53.130;17.982;2023-08-08T12:26:10;3.00;;;1.20;;
77012;SDS011;67260;53.130;17.982;2023-08-08T12:28:37;3.60;;;1.30;;
77012;SDS011;67260;53.130;17.982;2023-08-08T12:31:08;3.70;;;1.30;;
77012;SDS011;67260;53.130;17.982;2023-08-08T12:33:35;3.10;;;1.20;;
77012;SDS011;67260;53.130;17.982;2023-08-08T12:36:02;3.80;;;1.20;;
77012;SDS011;67260;53.130;17.982;2023-08-08T12:38:29;4.90;;;1.20;;
77012;SDS011;67260;53.130;17.982;2023-08-08T12:40:56;5.50;;;1.50;;
77012;SDS011;67260;53.130;17.982;2023-08-08T12:43:23;5.60;;;1.50;;
77012;SDS011;67260;53.130;17.982;2023-08-08T12:45:49;2.60;;;1.10;;
77012;SDS011;67260;53.130;17.982;2023-08-08T12:48:17;6.70;;;1.10;;
77012;SDS011;67260;53.130;17.982;2023-08-08T12:50:45;4.50;;;1.30;;
77012;SDS011;67260;53.130;17.982;2023-08-08T12:53:12;4.80;;;0.90;;
77012;SDS011;67260;53.130;17.982;2023-08-08T12:55:39;3.40;;;1.00;;
77012;SDS011;67260;53.130;17.982;2023-08-08T12:58:07;3.90;;;1.10;;
77012;SDS011;67260;53.130;17.982;2023-08-08T13:00:48;3.60;;;1.00;;
77012;SDS011;67260;53.130;17.982;2023-08-08T13:03:19;3.10;;;1.20;;
77012;SDS011;67260;53.130;17.982;2023-08-08T13:05:47;3.80;;;1.30;;
77012;SDS011;67260;53.130;17.982;2023-08-08T13:08:14;3.60;;;1.20;;
77012;SDS011;67260;53.130;17.982;2023-08-08T13:10:41;3.50;;;1.40;;
77012;SDS011;67260;53.130;17.982;2023-08-08T13:13:08;6.80;;;1.50;;
77012;SDS011;67260;53.130;17.982;2023-08-08T13:15:35;5.40;;;1.80;;
77012;SDS011;67260;53.130;17.982;2023-08-08T13:18:05;3.20;;;1.20;;
77012;SDS011;67260;53.130;17.982;2023-08-08T13:20:32;3.30;;;1.50;;
77012;SDS011;67260;53.130;17.982;2023-08-08T13:22:59;5.40;;;1.60;;
77012;SDS011;67260;53.130;17.982;2023-08-08T13:25:44;6.30;;;1.50;;
77012;SDS011;67260;53.130;17.982;2023-08-08T13:28:12;4.20;;;1.50;;
77012;SDS011;67260;53.130;17.982;2023-08-08T13:30:42;3.00;;;1.50;;
77012;SDS011;67260;53.130;17.982;2023-08-08T13:33:10;4.60;;;1.50;;
77012;SDS011;67260;53.130;17.982;2023-08-08T13:35:40;4.30;;;1.50;;
77012;SDS011;67260;53.130;17.982;2023-08-08T13:38:13;5.30;;;1.90;;
77012;SDS011;67260;53.130;17.982;2023-08-08T13:40:45;4.20;;;1.80;;
77012;SDS011;67260;53.130;17.982;2023-08-08T13:43:15;4.80;;;1.90;;
77012;SDS011;67260;53.130;17.982;2023-08-08T13:45:47;3.40;;;1.60;;
77012;SDS011;67260;53.130;17.982;2023-08-08T13:48:14;7.30;;;2.10;;
77012;SDS011;67260;53.130;17.982;2023-08-08T13:50:52;3.50;;;1.40;;
77012;SDS011;67260;53.130;17.982;2023-08-08T13:53:21;3.70;;;1.30;;
77012;SDS011;67260;53.130;17.982;2023-08-08T13:55:53;3.90;;;1.40;;
77012;SDS011;67260;53.130;17.982;2023-08-08T13:58:29;4.40;;;1.30;;
77012;SDS011;67260;53.130;17.982;2023-08-08T14:00:56;3.20;;;1.40;;
77012;SDS011;67260;53.130;17.982;2023-08-08T14:03:26;5.10;;;1.50;;
77012;SDS011;67260;53.130;17.982;2023-08-08T14:06:02;3.70;;;1.40;;
77012;SDS011;67260;53.130;17.982;2023-08-08T14:08:41;3.30;;;1.40;;
77012;SDS011;67260;53.130;17.982;2023-08-08T14:11:08;5.40;;;1.80;;
77012;SDS011;67260;53.130;17.982;2023-08-08T14:13:35;2.80;;;1.30;;
77012;SDS011;67260;53.130;17.982;2023-08-08T14:16:18;2.90;;;1.50;;
77012;SDS011;67260;53.130;17.982;2023-08-08T14:18:44;3.50;;;1.30;;
77012;SDS011;67260;53.130;17.982;2023-08-08T14:21:19;3.50;;;1.50;;
77012;SDS011;67260;53.130;17.982;2023-08-08T14:23:46;4.40;;;1.50;;
77012;SDS011;67260;53.130;17.982;2023-08-08T14:26:13;2.70;;;1.20;;
77012;SDS011;67260;53.130;17.982;2023-08-08T14:28:40;2.00;;;1.00;;
77012;SDS011;67260;53.130;17.982;2023-08-08T14:31:08;2.70;;;1.10;;
77012;SDS011;67260;53.130;17.982;2023-08-08T14:33:35;2.50;;;1.00;;
77012;SDS011;67260;53.130;17.982;2023-08-08T14:36:01;1.70;;;0.80;;
77012;SDS011;67260;53.130;17.982;2023-08-08T14:38:33;2.60;;;1.10;;
77012;SDS011;67260;53.130;17.982;2023-08-08T14:41:01;2.10;;;0.90;;
77012;SDS011;67260;53.130;17.982;2023-08-08T14:43:28;2.20;;;1.00;;
77012;SDS011;67260;53.130;17.982;2023-08-08T14:45:55;3.10;;;1.10;;
77012;SDS011;67260;53.130;17.982;2023-08-08T14:48:24;2.40;;;1.00;;
77012;SDS011;67260;53.130;17.982;2023-08-08T14:50:51;2.10;;;1.20;;
77012;SDS011;67260;53.130;17.982;2023-08-08T14:53:18;3.10;;;1.00;;